sensor_id;sensor_type;location;lat;lon;timestamp;P1;durP1;ratioP1;P2;durP2;ratioP2
21741;SDS011;11033;47.490;11.116;2024-01-25T00:02:21;1.15;;;1.02;;
21741;SDS011;11033;47.490;11.116;2024-01-25T00:04:46;1.40;;;1.00;;
21741;SDS011;11033;47.490;11.116;2024-01-25T00:07:12;2.90;;;1.40;;
21741;SDS011;11033;47.490;11.116;2024-01-25T00:09:37;1.13;;;1.00;;
21741;SDS011;11033;47.490;11.116;2024-01-25T00:12:02;2.80;;;1.27;;
21741;SDS011;11033;47.490;11.116;2024-01-25T00:14:28;1.33;;;1.20;;
21741;SDS011;11033;47.490;11.116;2024-01-25T00:16:53;1.20;;;1.10;;
21741;SDS011;11033;47.490;11.116;2024-01-25T00:19:18;1.25;;;0.90;;
21741;SDS011;11033;47.490;11.116;2024-01-25T00:21:44;3.35;;;1.30;;
21741;SDS011;11033;47.490;11.116;2024-01-25T00:24:12;2.30;;;1.00;;
21741;SDS011;11033;47.490;11.116;2024-01-25T00:26:37;1.17;;;1.00;;
21741;SDS011;11033;47.490;11.116;2024-01-25T00:29:03;1.35;;;1.00;;
21741;SDS011;11033;47.490;11.116;2024-01-25T00:31:29;7.32;;;1.20;;
21741;SDS011;11033;47.490;11.116;2024-01-25T00:33:55;1.70;;;1.10;;
21741;SDS011;11033;47.490;11.116;2024-01-25T00:36:20;5.93;;;1.60;;
21741;SDS011;11033;47.490;11.116;2024-01-25T00:38:46;1.45;;;0.70;;
21741;SDS011;11033;47.490;11.116;2024-01-25T00:41:12;6.00;;;4.20;;
21741;SDS011;11033;47.490;11.116;2024-01-25T00:46:08;4.50;;;0.90;;
21741;SDS011;11033;47.490;11.116;2024-01-25T00:48:34;1.13;;;0.90;;
21741;SDS011;11033;47.490;11.116;2024-01-25T00:50:59;4.38;;;1.23;;
21741;SDS011;11033;47.490;11.116;2024-01-25T00:53:25;2.92;;;1.23;;
21741;SDS011;11033;47.490;11.116;2024-01-25T00:55:51;2.53;;;1.10;;
21741;SDS011;11033;47.490;11.116;2024-01-25T00:58:17;3.22;;;1.27;;
21741;SDS011;11033;47.490;11.116;2024-01-25T01:00:42;2.33;;;1.08;;
21741;SDS011;11033;47.490;11.116;2024-01-25T01:03:08;1.55;;;1.05;;
21741;SDS011;11033;47.490;11.116;2024-01-25T01:05:34;3.38;;;1.05;;
21741;SDS011;11033;47.490;11.116;2024-01-25T01:08:00;3.10;;;1.00;;
21741;SDS011;11033;47.490;11.116;2024-01-25T01:10:25;2.22;;;0.90;;
21741;SDS011;11033;47.490;11.116;2024-01-25T01:12:51;1.73;;;0.88;;
21741;SDS011;11033;47.490;11.116;2024-01-25T01:15:17;3.42;;;1.08;;
21741;SDS011;11033;47.490;11.116;2024-01-25T01:17:43;1.77;;;0.70;;
21741;SDS011;11033;47.490;11.116;2024-01-25T01:20:08;2.42;;;1.00;;
21741;SDS011;11033;47.490;11.116;2024-01-25T01:22:34;2.95;;;0.90;;
21741;SDS011;11033;47.490;11.116;2024-01-25T01:24:59;2.10;;;0.75;;
21741;SDS011;11033;47.490;11.116;2024-01-25T01:27:24;3.38;;;1.10;;
21741;SDS011;11033;47.490;11.116;2024-01-25T01:29:50;2.38;;;1.38;;
21741;SDS011;11033;47.490;11.116;2024-01-25T01:32:15;2.35;;;1.00;;
21741;SDS011;11033;47.490;11.116;2024-01-25T01:34:40;1.52;;;1.10;;
21741;SDS011;11033;47.490;11.116;2024-01-25T01:37:05;2.53;;;1.00;;
21741;SDS011;11033;47.490;11.116;2024-01-25T01:39:31;1.15;;;0.80;;
21741;SDS011;11033;47.490;11.116;2024-01-25T01:41:56;0.85;;;0.75;;
21741;SDS011;11033;47.490;11.116;2024-01-25T01:44:21;1.80;;;0.70;;
21741;SDS011;11033;47.490;11.116;2024-01-25T01:46:47;2.92;;;1.10;;
21741;SDS011;11033;47.490;11.116;2024-01-25T01:49:13;2.60;;;0.90;;
21741;SDS011;11033;47.490;11.116;2024-01-25T01:51:39;3.03;;;0.93;;
21741;SDS011;11033;47.490;11.116;2024-01-25T01:54:06;1.63;;;0.70;;
21741;SDS011;11033;47.490;11.116;2024-01-25T01:56:32;2.15;;;0.63;;
21741;SDS011;11033;47.490;11.116;2024-01-25T01:58:59;1.70;;;0.70;;
21741;SDS011;11033;47.490;11.116;2024-01-25T02:01:25;1.50;;;0.60;;
21741;SDS011;11033;47.490;11.116;2024-01-25T02:03:51;2.17;;;0.60;;
21741;SDS011;11033;47.490;11.116;2024-01-25T02:06:17;1.13;;;0.65;;
21741;SDS011;11033;47.490;11.116;2024-01-25T02:08:43;0.80;;;0.55;;
21741;SDS011;11033;47.490;11.116;2024-01-25T02:11:11;3.20;;;1.00;;
21741;SDS011;11033;47.490;11.116;2024-01-25T02:13:37;2.30;;;0.90;;
21741;SDS011;11033;47.490;11.116;2024-01-25T02:16:02;1.73;;;0.80;;
21741;SDS011;11033;47.490;11.116;2024-01-25T02:18:28;2.05;;;0.50;;
21741;SDS011;11033;47.490;11.116;2024-01-25T02:20:54;2.97;;;0.90;;
21741;SDS011;11033;47.490;11.116;2024-01-25T02:23:19;1.10;;;0.73;;
21741;SDS011;11033;47.490;11.116;2024-01-25T02:25:44;0.60;;;0.50;;
21741;SDS011;11033;47.490;11.116;2024-01-25T02:28:10;1.15;;;0.60;;
21741;SDS011;11033;47.490;11.116;2024-01-25T02:30:35;1.90;;;0.60;;
21741;SDS011;11033;47.490;11.116;2024-01-25T02:33:00;0.70;;;0.70;;
21741;SDS011;11033;47.490;11.116;2024-01-25T02:35:25;0.95;;;0.80;;
21741;SDS011;11033;47.490;11.116;2024-01-25T02:37:51;1.42;;;0.80;;
21741;SDS011;11033;47.490;11.116;2024-01-25T02:40:16;1.40;;;0.45;;
21741;SDS011;11033;47.490;11.116;2024-01-25T02:42:41;1.23;;;0.45;;
21741;SDS011;11033;47.490;11.116;2024-01-25T02:45:07;1.90;;;0.70;;
21741;SDS011;11033;47.490;11.116;2024-01-25T02:47:32;1.08;;;0.40;;
21741;SDS011;11033;47.490;11.116;2024-01-25T02:49:58;1.60;;;0.73;;
21741;SDS011;11033;47.490;11.116;2024-01-25T02:52:23;1.35;;;0.35;;
21741;SDS011;11033;47.490;11.116;2024-01-25T02:54:48;1.38;;;0.50;;
21741;SDS011;11033;47.490;11.116;2024-01-25T02:57:14;0.65;;;0.40;;
21741;SDS011;11033;47.490;11.116;2024-01-25T02:59:39;0.98;;;0.40;;
21741;SDS011;11033;47.490;11.116;2024-01-25T03:02:04;1.83;;;0.60;;
21741;SDS011;11033;47.490;11.116;2024-01-25T03:04:30;1.13;;;0.40;;
21741;SDS011;11033;47.490;11.116;2024-01-25T03:06:55;0.52;;;0.32;;
21741;SDS011;11033;47.490;11.116;2024-01-25T03:09:20;0.90;;;0.40;;
21741;SDS011;11033;47.490;11.116;2024-01-25T03:11:48;0.40;;;0.30;;
21741;SDS011;11033;47.490;11.116;2024-01-25T03:14:14;0.68;;;0.47;;
21741;SDS011;11033;47.490;11.116;2024-01-25T03:16:39;0.95;;;0.60;;
21741;SDS011;11033;47.490;11.116;2024-01-25T03:19:04;2.50;;;0.77;;
21741;SDS011;11033;47.490;11.116;2024-01-25T03:21:30;3.08;;;0.73;;
21741;SDS011;11033;47.490;11.116;2024-01-25T03:23:55;3.75;;;1.20;;
21741;SDS011;11033;47.490;11.116;2024-01-25T03:26:20;1.17;;;0.63;;
21741;SDS011;11033;47.490;11.116;2024-01-25T03:28:46;0.40;;;0.40;;
21741;SDS011;11033;47.490;11.116;2024-01-25T03:31:11;1.10;;;0.40;;
21741;SDS011;11033;47.490;11.116;2024-01-25T03:33:36;0.65;;;0.40;;
21741;SDS011;11033;47.490;11.116;2024-01-25T03:36:05;1.17;;;0.60;;
21741;SDS011;11033;47.490;11.116;2024-01-25T03:38:31;0.85;;;0.40;;
21741;SDS011;11033;47.490;11.116;2024-01-25T03:40:56;1.92;;;0.43;;
21741;SDS011;11033;47.490;11.116;2024-01-25T03:43:23;2.38;;;0.55;;
21741;SDS011;11033;47.490;11.116;2024-01-25T03:45:52;0.63;;;0.60;;
21741;SDS011;11033;47.490;11.116;2024-01-25T03:48:17;0.73;;;0.40;;
21741;SDS011;11033;47.490;11.116;2024-01-25T03:50:43;0.55;;;0.50;;
21741;SDS011;11033;47.490;11.116;2024-01-25T03:53:08;1.58;;;0.52;;
21741;SDS011;11033;47.490;11.116;2024-01-25T03:55:33;0.95;;;0.50;;
21741;SDS011;11033;47.490;11.116;2024-01-25T03:57:59;0.68;;;0.57;;
21741;SDS011;11033;47.490;11.116;2024-01-25T04:00:24;2.28;;;0.63;;
21741;SDS011;11033;47.490;11.116;2024-01-25T04:02:50;1.30;;;0.60;;
21741;SDS011;11033;47.490;11.116;2024-01-25T04:05:15;1.77;;;0.70;;
21741;SDS011;11033;47.490;11.116;2024-01-25T04:07:40;1.35;;;0.70;;
21741;SDS011;11033;47.490;11.116;2024-01-25T04:10:06;0.82;;;0.70;;
21741;SDS011;11033;47.490;11.116;2024-01-25T04:12:31;1.08;;;0.80;;
21741;SDS011;11033;47.490;11.116;2024-01-25T04:14:58;1.92;;;0.80;;
21741;SDS011;11033;47.490;11.116;2024-01-25T04:17:23;1.50;;;0.70;;
21741;SDS011;11033;47.490;11.116;2024-01-25T04:19:48;0.98;;;0.98;;
21741;SDS011;11033;47.490;11.116;2024-01-25T04:22:14;0.90;;;0.60;;
21741;SDS011;11033;47.490;11.116;2024-01-25T04:24:39;2.38;;;0.90;;
21741;SDS011;11033;47.490;11.116;2024-01-25T04:27:04;0.95;;;0.82;;
21741;SDS011;11033;47.490;11.116;2024-01-25T04:29:30;1.55;;;0.80;;
21741;SDS011;11033;47.490;11.116;2024-01-25T04:31:55;2.58;;;0.82;;
21741;SDS011;11033;47.490;11.116;2024-01-25T04:34:21;1.13;;;0.60;;
21741;SDS011;11033;47.490;11.116;2024-01-25T04:36:46;0.75;;;0.70;;
21741;SDS011;11033;47.490;11.116;2024-01-25T04:39:11;1.38;;;0.90;;
21741;SDS011;11033;47.490;11.116;2024-01-25T04:41:36;1.25;;;0.55;;
21741;SDS011;11033;47.490;11.116;2024-01-25T04:44:02;3.20;;;0.90;;
21741;SDS011;11033;47.490;11.116;2024-01-25T04:46:27;1.88;;;1.00;;
21741;SDS011;11033;47.490;11.116;2024-01-25T04:48:53;2.33;;;1.00;;
21741;SDS011;11033;47.490;11.116;2024-01-25T04:51:18;1.13;;;1.02;;
21741;SDS011;11033;47.490;11.116;2024-01-25T04:53:45;1.33;;;1.20;;
21741;SDS011;11033;47.490;11.116;2024-01-25T04:56:10;3.00;;;1.50;;
21741;SDS011;11033;47.490;11.116;2024-01-25T04:58:36;3.97;;;1.13;;
21741;SDS011;11033;47.490;11.116;2024-01-25T05:01:01;0.98;;;0.80;;
21741;SDS011;11033;47.490;11.116;2024-01-25T05:03:26;2.53;;;0.88;;
21741;SDS011;11033;47.490;11.116;2024-01-25T05:05:51;1.80;;;0.85;;
21741;SDS011;11033;47.490;11.116;2024-01-25T05:08:17;1.60;;;0.93;;
21741;SDS011;11033;47.490;11.116;2024-01-25T05:10:42;0.63;;;0.60;;
21741;SDS011;11033;47.490;11.116;2024-01-25T05:13:08;4.57;;;0.95;;
21741;SDS011;11033;47.490;11.116;2024-01-25T05:15:34;1.02;;;0.90;;
21741;SDS011;11033;47.490;11.116;2024-01-25T05:17:59;3.75;;;1.85;;
21741;SDS011;11033;47.490;11.116;2024-01-25T05:20:25;1.40;;;1.30;;
21741;SDS011;11033;47.490;11.116;2024-01-25T05:22:56;2.65;;;1.48;;
21741;SDS011;11033;47.490;11.116;2024-01-25T05:25:22;2.65;;;2.03;;
21741;SDS011;11033;47.490;11.116;2024-01-25T05:27:47;3.75;;;2.85;;
21741;SDS011;11033;47.490;11.116;2024-01-25T05:30:12;4.38;;;2.80;;
21741;SDS011;11033;47.490;11.116;2024-01-25T05:32:38;7.65;;;3.55;;
21741;SDS011;11033;47.490;11.116;2024-01-25T05:35:03;2.40;;;2.20;;
21741;SDS011;11033;47.490;11.116;2024-01-25T05:37:29;4.18;;;1.98;;
21741;SDS011;11033;47.490;11.116;2024-01-25T05:39:55;4.50;;;2.92;;
21741;SDS011;11033;47.490;11.116;2024-01-25T05:42:20;3.03;;;1.90;;
21741;SDS011;11033;47.490;11.116;2024-01-25T05:44:45;1.92;;;1.35;;
21741;SDS011;11033;47.490;11.116;2024-01-25T05:47:11;0.90;;;0.90;;
21741;SDS011;11033;47.490;11.116;2024-01-25T05:49:36;2.03;;;1.10;;
21741;SDS011;11033;47.490;11.116;2024-01-25T05:52:01;1.88;;;1.30;;
21741;SDS011;11033;47.490;11.116;2024-01-25T05:54:27;5.80;;;2.60;;
21741;SDS011;11033;47.490;11.116;2024-01-25T05:56:52;3.88;;;2.00;;
21741;SDS011;11033;47.490;11.116;2024-01-25T05:59:17;2.35;;;1.77;;
21741;SDS011;11033;47.490;11.116;2024-01-25T06:01:42;6.72;;;2.00;;
21741;SDS011;11033;47.490;11.116;2024-01-25T06:04:08;5.25;;;2.55;;
21741;SDS011;11033;47.490;11.116;2024-01-25T06:06:33;6.20;;;2.20;;
21741;SDS011;11033;47.490;11.116;2024-01-25T06:08:58;5.43;;;2.63;;
21741;SDS011;11033;47.490;11.116;2024-01-25T06:11:24;6.95;;;3.13;;
21741;SDS011;11033;47.490;11.116;2024-01-25T06:13:49;4.88;;;2.33;;
21741;SDS011;11033;47.490;11.116;2024-01-25T06:16:14;4.90;;;2.08;;
21741;SDS011;11033;47.490;11.116;2024-01-25T06:18:39;6.63;;;2.63;;
21741;SDS011;11033;47.490;11.116;2024-01-25T06:21:05;4.75;;;2.17;;
21741;SDS011;11033;47.490;11.116;2024-01-25T06:23:30;5.38;;;2.25;;
21741;SDS011;11033;47.490;11.116;2024-01-25T06:25:55;5.07;;;1.80;;
21741;SDS011;11033;47.490;11.116;2024-01-25T06:28:20;2.70;;;1.70;;
21741;SDS011;11033;47.490;11.116;2024-01-25T06:30:46;7.50;;;3.20;;
21741;SDS011;11033;47.490;11.116;2024-01-25T06:33:11;7.97;;;2.97;;
21741;SDS011;11033;47.490;11.116;2024-01-25T06:35:37;3.33;;;1.75;;
21741;SDS011;11033;47.490;11.116;2024-01-25T06:38:02;5.45;;;1.40;;
21741;SDS011;11033;47.490;11.116;2024-01-25T06:40:27;2.15;;;1.33;;
21741;SDS011;11033;47.490;11.116;2024-01-25T06:42:53;7.25;;;4.25;;
21741;SDS011;11033;47.490;11.116;2024-01-25T06:45:18;7.63;;;4.60;;
21741;SDS011;11033;47.490;11.116;2024-01-25T06:47:43;5.30;;;3.40;;
21741;SDS011;11033;47.490;11.116;2024-01-25T06:50:08;5.35;;;2.70;;
21741;SDS011;11033;47.490;11.116;2024-01-25T06:52:34;5.60;;;2.92;;
21741;SDS011;11033;47.490;11.116;2024-01-25T06:55:00;2.88;;;1.90;;
21741;SDS011;11033;47.490;11.116;2024-01-25T06:57:25;2.28;;;1.65;;
21741;SDS011;11033;47.490;11.116;2024-01-25T06:59:50;5.15;;;2.85;;
21741;SDS011;11033;47.490;11.116;2024-01-25T07:02:16;8.25;;;3.70;;
21741;SDS011;11033;47.490;11.116;2024-01-25T07:04:41;8.73;;;3.97;;
21741;SDS011;11033;47.490;11.116;2024-01-25T07:07:06;10.80;;;3.67;;
21741;SDS011;11033;47.490;11.116;2024-01-25T07:09:32;3.67;;;1.90;;
21741;SDS011;11033;47.490;11.116;2024-01-25T07:11:57;3.80;;;1.20;;
21741;SDS011;11033;47.490;11.116;2024-01-25T07:14:22;3.78;;;1.60;;
21741;SDS011;11033;47.490;11.116;2024-01-25T07:16:48;1.48;;;1.30;;
21741;SDS011;11033;47.490;11.116;2024-01-25T07:19:13;5.47;;;2.53;;
21741;SDS011;11033;47.490;11.116;2024-01-25T07:21:39;2.85;;;1.60;;
21741;SDS011;11033;47.490;11.116;2024-01-25T07:24:05;1.55;;;1.45;;
21741;SDS011;11033;47.490;11.116;2024-01-25T07:26:31;3.60;;;1.80;;
21741;SDS011;11033;47.490;11.116;2024-01-25T07:28:56;2.50;;;1.80;;
21741;SDS011;11033;47.490;11.116;2024-01-25T07:31:25;3.15;;;1.80;;
21741;SDS011;11033;47.490;11.116;2024-01-25T07:33:51;4.07;;;2.25;;
21741;SDS011;11033;47.490;11.116;2024-01-25T07:36:17;1.92;;;1.50;;
21741;SDS011;11033;47.490;11.116;2024-01-25T07:38:43;1.70;;;1.30;;
21741;SDS011;11033;47.490;11.116;2024-01-25T07:41:09;2.65;;;1.15;;
21741;SDS011;11033;47.490;11.116;2024-01-25T07:43:34;1.73;;;1.30;;
21741;SDS011;11033;47.490;11.116;2024-01-25T07:45:59;5.00;;;2.00;;
21741;SDS011;11033;47.490;11.116;2024-01-25T07:48:24;2.17;;;1.63;;
21741;SDS011;11033;47.490;11.116;2024-01-25T07:50:50;2.47;;;1.40;;
21741;SDS011;11033;47.490;11.116;2024-01-25T07:53:15;2.33;;;1.50;;
21741;SDS011;11033;47.490;11.116;2024-01-25T07:55:41;2.38;;;1.70;;
21741;SDS011;11033;47.490;11.116;2024-01-25T07:58:07;3.75;;;1.88;;
21741;SDS011;11033;47.490;11.116;2024-01-25T08:00:32;1.95;;;1.00;;
21741;SDS011;11033;47.490;11.116;2024-01-25T08:02:57;1.50;;;1.30;;
21741;SDS011;11033;47.490;11.116;2024-01-25T08:05:23;1.80;;;1.23;;
21741;SDS011;11033;47.490;11.116;2024-01-25T08:07:48;2.45;;;1.70;;
21741;SDS011;11033;47.490;11.116;2024-01-25T08:10:14;1.02;;;0.85;;
21741;SDS011;11033;47.490;11.116;2024-01-25T08:12:40;1.08;;;0.98;;
21741;SDS011;11033;47.490;11.116;2024-01-25T08:15:08;1.27;;;1.17;;
21741;SDS011;11033;47.490;11.116;2024-01-25T08:17:34;3.22;;;1.88;;
21741;SDS011;11033;47.490;11.116;2024-01-25T08:20:01;3.38;;;1.88;;
21741;SDS011;11033;47.490;11.116;2024-01-25T08:22:27;4.40;;;2.97;;
21741;SDS011;11033;47.490;11.116;2024-01-25T08:24:53;6.68;;;3.38;;
21741;SDS011;11033;47.490;11.116;2024-01-25T08:27:18;8.57;;;3.50;;
21741;SDS011;11033;47.490;11.116;2024-01-25T08:29:44;7.70;;;3.75;;
21741;SDS011;11033;47.490;11.116;2024-01-25T08:32:10;10.45;;;5.18;;
21741;SDS011;11033;47.490;11.116;2024-01-25T08:34:35;7.22;;;4.82;;
21741;SDS011;11033;47.490;11.116;2024-01-25T08:37:01;4.88;;;3.30;;
21741;SDS011;11033;47.490;11.116;2024-01-25T08:39:26;3.65;;;2.28;;
21741;SDS011;11033;47.490;11.116;2024-01-25T08:41:51;4.13;;;2.58;;
21741;SDS011;11033;47.490;11.116;2024-01-25T08:44:16;4.03;;;2.80;;
21741;SDS011;11033;47.490;11.116;2024-01-25T08:46:42;5.03;;;2.72;;
21741;SDS011;11033;47.490;11.116;2024-01-25T08:49:08;2.40;;;2.20;;
21741;SDS011;11033;47.490;11.116;2024-01-25T08:51:35;3.20;;;2.50;;
21741;SDS011;11033;47.490;11.116;2024-01-25T08:54:00;2.75;;;2.40;;
21741;SDS011;11033;47.490;11.116;2024-01-25T08:56:26;4.57;;;3.83;;
21741;SDS011;11033;47.490;11.116;2024-01-25T08:58:51;5.13;;;4.63;;
21741;SDS011;11033;47.490;11.116;2024-01-25T09:01:17;5.47;;;3.88;;
21741;SDS011;11033;47.490;11.116;2024-01-25T09:03:42;2.05;;;1.75;;
21741;SDS011;11033;47.490;11.116;2024-01-25T09:06:08;1.90;;;1.25;;
21741;SDS011;11033;47.490;11.116;2024-01-25T09:08:33;3.67;;;2.20;;
21741;SDS011;11033;47.490;11.116;2024-01-25T09:10:58;2.80;;;2.55;;
21741;SDS011;11033;47.490;11.116;2024-01-25T09:13:24;3.90;;;3.17;;
21741;SDS011;11033;47.490;11.116;2024-01-25T09:15:49;3.28;;;2.97;;
21741;SDS011;11033;47.490;11.116;2024-01-25T09:18:15;2.63;;;1.80;;
21741;SDS011;11033;47.490;11.116;2024-01-25T09:20:40;5.20;;;1.90;;
21741;SDS011;11033;47.490;11.116;2024-01-25T09:23:06;5.82;;;2.22;;
21741;SDS011;11033;47.490;11.116;2024-01-25T09:25:31;1.27;;;1.15;;
21741;SDS011;11033;47.490;11.116;2024-01-25T09:27:57;2.78;;;1.73;;
21741;SDS011;11033;47.490;11.116;2024-01-25T09:30:22;2.60;;;2.00;;
21741;SDS011;11033;47.490;11.116;2024-01-25T09:32:48;5.10;;;2.25;;
21741;SDS011;11033;47.490;11.116;2024-01-25T09:35:13;2.92;;;1.75;;
21741;SDS011;11033;47.490;11.116;2024-01-25T09:37:39;1.00;;;0.80;;
21741;SDS011;11033;47.490;11.116;2024-01-25T09:40:05;0.98;;;0.80;;
21741;SDS011;11033;47.490;11.116;2024-01-25T09:42:31;0.70;;;0.70;;
21741;SDS011;11033;47.490;11.116;2024-01-25T09:44:56;0.98;;;0.50;;
21741;SDS011;11033;47.490;11.116;2024-01-25T09:47:22;2.85;;;1.08;;
21741;SDS011;11033;47.490;11.116;2024-01-25T09:49:48;2.53;;;0.90;;
21741;SDS011;11033;47.490;11.116;2024-01-25T09:52:13;2.15;;;1.60;;
21741;SDS011;11033;47.490;11.116;2024-01-25T09:54:40;1.05;;;1.00;;
21741;SDS011;11033;47.490;11.116;2024-01-25T09:57:13;2.30;;;1.73;;
21741;SDS011;11033;47.490;11.116;2024-01-25T09:59:43;4.45;;;1.75;;
21741;SDS011;11033;47.490;11.116;2024-01-25T10:02:09;2.63;;;1.60;;
21741;SDS011;11033;47.490;11.116;2024-01-25T10:04:35;1.40;;;1.30;;
21741;SDS011;11033;47.490;11.116;2024-01-25T10:07:00;1.65;;;1.27;;
21741;SDS011;11033;47.490;11.116;2024-01-25T10:09:25;2.92;;;2.10;;
21741;SDS011;11033;47.490;11.116;2024-01-25T10:11:52;2.33;;;2.13;;
21741;SDS011;11033;47.490;11.116;2024-01-25T10:14:17;2.05;;;1.73;;
21741;SDS011;11033;47.490;11.116;2024-01-25T10:16:44;4.90;;;2.22;;
21741;SDS011;11033;47.490;11.116;2024-01-25T10:19:10;2.97;;;2.38;;
21741;SDS011;11033;47.490;11.116;2024-01-25T10:21:37;2.83;;;2.00;;
21741;SDS011;11033;47.490;11.116;2024-01-25T10:24:02;0.80;;;0.80;;
21741;SDS011;11033;47.490;11.116;2024-01-25T10:26:28;1.10;;;1.00;;
21741;SDS011;11033;47.490;11.116;2024-01-25T10:28:53;2.22;;;1.50;;
21741;SDS011;11033;47.490;11.116;2024-01-25T10:31:22;1.20;;;1.10;;
21741;SDS011;11033;47.490;11.116;2024-01-25T10:33:49;1.10;;;0.80;;
21741;SDS011;11033;47.490;11.116;2024-01-25T10:36:17;0.70;;;0.65;;
21741;SDS011;11033;47.490;11.116;2024-01-25T10:38:43;1.05;;;0.90;;
21741;SDS011;11033;47.490;11.116;2024-01-25T10:41:09;2.08;;;0.90;;
21741;SDS011;11033;47.490;11.116;2024-01-25T10:43:35;1.58;;;0.93;;
21741;SDS011;11033;47.490;11.116;2024-01-25T10:46:01;1.73;;;1.50;;
21741;SDS011;11033;47.490;11.116;2024-01-25T10:48:27;3.28;;;2.45;;
21741;SDS011;11033;47.490;11.116;2024-01-25T10:50:54;3.28;;;2.38;;
21741;SDS011;11033;47.490;11.116;2024-01-25T10:53:19;2.60;;;2.10;;
21741;SDS011;11033;47.490;11.116;2024-01-25T10:55:46;3.65;;;2.70;;
21741;SDS011;11033;47.490;11.116;2024-01-25T10:58:13;2.53;;;2.17;;
21741;SDS011;11033;47.490;11.116;2024-01-25T11:00:39;5.53;;;3.20;;
21741;SDS011;11033;47.490;11.116;2024-01-25T11:03:05;5.03;;;2.45;;
21741;SDS011;11033;47.490;11.116;2024-01-25T11:05:31;2.60;;;1.80;;
21741;SDS011;11033;47.490;11.116;2024-01-25T11:07:56;2.95;;;2.50;;
21741;SDS011;11033;47.490;11.116;2024-01-25T11:10:23;4.80;;;2.83;;
21741;SDS011;11033;47.490;11.116;2024-01-25T11:12:57;5.03;;;3.40;;
21741;SDS011;11033;47.490;11.116;2024-01-25T11:15:29;3.10;;;2.10;;
21741;SDS011;11033;47.490;11.116;2024-01-25T11:17:57;2.35;;;1.20;;
21741;SDS011;11033;47.490;11.116;2024-01-25T11:20:23;4.82;;;2.40;;
21741;SDS011;11033;47.490;11.116;2024-01-25T11:22:55;4.30;;;1.70;;
21741;SDS011;11033;47.490;11.116;2024-01-25T11:25:26;2.75;;;1.80;;
21741;SDS011;11033;47.490;11.116;2024-01-25T11:27:55;3.40;;;2.00;;
21741;SDS011;11033;47.490;11.116;2024-01-25T11:30:21;2.30;;;1.77;;
21741;SDS011;11033;47.490;11.116;2024-01-25T11:32:46;4.20;;;2.25;;
21741;SDS011;11033;47.490;11.116;2024-01-25T11:35:13;2.22;;;1.80;;
21741;SDS011;11033;47.490;11.116;2024-01-25T11:37:41;2.72;;;2.08;;
21741;SDS011;11033;47.490;11.116;2024-01-25T11:40:14;2.15;;;1.30;;
21741;SDS011;11033;47.490;11.116;2024-01-25T11:42:42;2.42;;;1.40;;
21741;SDS011;11033;47.490;11.116;2024-01-25T11:45:12;0.40;;;0.40;;
21741;SDS011;11033;47.490;11.116;2024-01-25T11:47:39;1.63;;;0.50;;
21741;SDS011;11033;47.490;11.116;2024-01-25T11:50:06;0.98;;;0.60;;
21741;SDS011;11033;47.490;11.116;2024-01-25T11:52:33;0.80;;;0.60;;
21741;SDS011;11033;47.490;11.116;2024-01-25T11:54:59;0.50;;;0.50;;
21741;SDS011;11033;47.490;11.116;2024-01-25T11:57:29;0.43;;;0.43;;
21741;SDS011;11033;47.490;11.116;2024-01-25T11:59:57;1.67;;;0.70;;
21741;SDS011;11033;47.490;11.116;2024-01-25T12:02:23;1.02;;;0.60;;
21741;SDS011;11033;47.490;11.116;2024-01-25T12:04:49;1.13;;;0.40;;
21741;SDS011;11033;47.490;11.116;2024-01-25T12:07:15;0.98;;;0.90;;
21741;SDS011;11033;47.490;11.116;2024-01-25T12:09:40;1.20;;;0.50;;
21741;SDS011;11033;47.490;11.116;2024-01-25T12:12:06;3.25;;;1.13;;
21741;SDS011;11033;47.490;11.116;2024-01-25T12:14:34;0.70;;;0.70;;
21741;SDS011;11033;47.490;11.116;2024-01-25T12:17:00;0.52;;;0.52;;
21741;SDS011;11033;47.490;11.116;2024-01-25T12:19:26;0.70;;;0.40;;
21741;SDS011;11033;47.490;11.116;2024-01-25T12:21:51;1.25;;;0.60;;
21741;SDS011;11033;47.490;11.116;2024-01-25T12:24:17;1.17;;;0.60;;
21741;SDS011;11033;47.490;11.116;2024-01-25T12:26:44;0.70;;;0.70;;
21741;SDS011;11033;47.490;11.116;2024-01-25T12:29:09;0.47;;;0.43;;
21741;SDS011;11033;47.490;11.116;2024-01-25T12:31:35;0.17;;;0.17;;
21741;SDS011;11033;47.490;11.116;2024-01-25T12:34:01;0.45;;;0.20;;
21741;SDS011;11033;47.490;11.116;2024-01-25T12:36:26;3.88;;;0.70;;
21741;SDS011;11033;47.490;11.116;2024-01-25T12:38:51;1.08;;;0.40;;
21741;SDS011;11033;47.490;11.116;2024-01-25T12:41:17;0.30;;;0.30;;
21741;SDS011;11033;47.490;11.116;2024-01-25T12:43:42;2.20;;;0.80;;
21741;SDS011;11033;47.490;11.116;2024-01-25T12:46:08;0.82;;;0.70;;
21741;SDS011;11033;47.490;11.116;2024-01-25T12:48:33;1.42;;;1.25;;
21741;SDS011;11033;47.490;11.116;2024-01-25T12:50:58;1.88;;;0.90;;
21741;SDS011;11033;47.490;11.116;2024-01-25T12:53:24;0.30;;;0.30;;
21741;SDS011;11033;47.490;11.116;2024-01-25T12:55:49;1.77;;;0.85;;
21741;SDS011;11033;47.490;11.116;2024-01-25T12:58:14;0.50;;;0.50;;
21741;SDS011;11033;47.490;11.116;2024-01-25T13:00:40;2.40;;;1.35;;
21741;SDS011;11033;47.490;11.116;2024-01-25T13:03:05;0.75;;;0.70;;
21741;SDS011;11033;47.490;11.116;2024-01-25T13:05:31;0.50;;;0.50;;
21741;SDS011;11033;47.490;11.116;2024-01-25T13:07:59;1.10;;;0.80;;
21741;SDS011;11033;47.490;11.116;2024-01-25T13:10:25;0.70;;;0.70;;
21741;SDS011;11033;47.490;11.116;2024-01-25T13:12:51;0.90;;;0.90;;
21741;SDS011;11033;47.490;11.116;2024-01-25T13:15:16;1.42;;;1.20;;
21741;SDS011;11033;47.490;11.116;2024-01-25T13:17:41;2.92;;;2.00;;
21741;SDS011;11033;47.490;11.116;2024-01-25T13:20:07;2.45;;;2.00;;
21741;SDS011;11033;47.490;11.116;2024-01-25T13:22:33;1.92;;;1.70;;
21741;SDS011;11033;47.490;11.116;2024-01-25T13:25:02;2.28;;;1.80;;
21741;SDS011;11033;47.490;11.116;2024-01-25T13:27:27;2.50;;;1.70;;
21741;SDS011;11033;47.490;11.116;2024-01-25T13:29:53;1.95;;;1.60;;
21741;SDS011;11033;47.490;11.116;2024-01-25T13:32:19;2.38;;;1.70;;
21741;SDS011;11033;47.490;11.116;2024-01-25T13:34:45;4.28;;;3.00;;
21741;SDS011;11033;47.490;11.116;2024-01-25T13:37:10;7.45;;;3.97;;
21741;SDS011;11033;47.490;11.116;2024-01-25T13:39:35;5.38;;;4.45;;
21741;SDS011;11033;47.490;11.116;2024-01-25T13:42:01;3.65;;;3.03;;
21741;SDS011;11033;47.490;11.116;2024-01-25T13:44:26;1.35;;;1.25;;
21741;SDS011;11033;47.490;11.116;2024-01-25T13:46:51;2.13;;;1.10;;
21741;SDS011;11033;47.490;11.116;2024-01-25T13:49:16;1.13;;;0.70;;
21741;SDS011;11033;47.490;11.116;2024-01-25T13:51:43;0.60;;;0.50;;
21741;SDS011;11033;47.490;11.116;2024-01-25T13:54:09;1.58;;;1.00;;
21741;SDS011;11033;47.490;11.116;2024-01-25T13:56:34;1.70;;;1.38;;
21741;SDS011;11033;47.490;11.116;2024-01-25T13:58:59;2.88;;;1.30;;
21741;SDS011;11033;47.490;11.116;2024-01-25T14:01:24;1.35;;;1.23;;
21741;SDS011;11033;47.490;11.116;2024-01-25T14:03:50;1.60;;;1.00;;
21741;SDS011;11033;47.490;11.116;2024-01-25T14:06:16;1.05;;;0.63;;
21741;SDS011;11033;47.490;11.116;2024-01-25T14:08:41;2.42;;;0.90;;
21741;SDS011;11033;47.490;11.116;2024-01-25T14:11:07;1.63;;;1.17;;
21741;SDS011;11033;47.490;11.116;2024-01-25T14:13:32;1.10;;;0.80;;
21741;SDS011;11033;47.490;11.116;2024-01-25T14:15:58;1.13;;;0.80;;
21741;SDS011;11033;47.490;11.116;2024-01-25T14:18:24;0.70;;;0.70;;
21741;SDS011;11033;47.490;11.116;2024-01-25T14:20:49;0.82;;;0.60;;
21741;SDS011;11033;47.490;11.116;2024-01-25T14:23:14;0.30;;;0.30;;
21741;SDS011;11033;47.490;11.116;2024-01-25T14:25:40;0.40;;;0.40;;
21741;SDS011;11033;47.490;11.116;2024-01-25T14:28:05;2.00;;;1.17;;